Time;durP1;ratioP1;P1;durP2;ratioP2;P2;SDS_P1;SDS_P2;PMS_P1;PMS_P2;Temp;Humidity;BMP_temperature;BMP_pressure;BME280_temperature;BME280_humidity;BME280_pressure;Samples;Min_cycle;Max_cycle;Signal;HPM_P1;HPM_P2
2023/12/12 00:00:30;;;;;;;24.70;5.93;;;10.50;99.90;;;;;;5010280;28;20080;-76
2023/12/12 00:02:59;;;;;;;14.20;4.95;;;10.50;99.90;;;;;;5013011;28;20102;-76
2023/12/12 00:05:24;;;;;;;18.33;5.03;;;10.50;99.90;;;;;;5012947;28;20026;-77
2023/12/12 00:07:50;;;;;;;18.65;5.05;;;10.50;99.90;;;;;;5010720;28;20084;-76
2023/12/12 00:10:16;;;;;;;18.13;5.57;;;10.50;99.90;;;;;;5011137;28;20515;-76
2023/12/12 00:12:42;;;;;;;15.52;4.97;;;10.50;99.90;;;;;;5014352;28;20108;-77
2023/12/12 00:15:08;;;;;;;12.38;4.18;;;10.50;99.90;;;;;;5032574;28;20108;-76
2023/12/12 00:17:34;;;;;;;22.17;5.00;;;10.50;99.90;;;;;;5032901;28;20101;-76
2023/12/12 00:20:00;;;;;;;18.52;4.32;;;10.40;99.90;;;;;;5027843;28;20025;-76
2023/12/12 00:22:25;;;;;;;16.58;4.15;;;10.40;99.90;;;;;;4995046;28;20037;-76
2023/12/12 00:24:51;;;;;;;17.60;4.53;;;10.30;99.90;;;;;;5012784;28;20382;-76
2023/12/12 00:27:16;;;;;;;21.70;4.75;;;10.30;99.90;;;;;;5012775;28;20393;-76
2023/12/12 00:29:42;;;;;;;16.42;4.25;;;10.30;99.90;;;;;;4995152;28;20474;-76
2023/12/12 00:32:08;;;;;;;23.05;4.10;;;10.30;99.90;;;;;;5011389;28;20026;-76
2023/12/12 00:34:38;;;;;;;22.08;4.63;;;10.30;99.90;;;;;;5012645;28;20026;-76
2023/12/12 00:37:04;;;;;;;15.60;4.47;;;10.30;99.90;;;;;;5012905;28;20512;-76
2023/12/12 00:39:30;;;;;;;20.33;4.82;;;10.30;99.90;;;;;;5011026;28;20394;-76
2023/12/12 00:41:55;;;;;;;24.58;4.55;;;10.20;99.90;;;;;;5012576;28;20038;-76
2023/12/12 00:44:21;;;;;;;18.05;4.70;;;10.20;99.90;;;;;;5011315;28;20045;-76
2023/12/12 00:46:46;;;;;;;21.77;5.10;;;10.20;99.90;;;;;;5012282;28;20037;-76
2023/12/12 00:49:12;;;;;;;42.17;23.73;;;10.30;99.90;;;;;;5011682;28;20034;-76
2023/12/12 00:51:38;;;;;;;26.52;9.63;;;10.20;99.90;;;;;;5012903;28;20038;-76
2023/12/12 00:54:04;;;;;;;24.55;6.63;;;10.20;99.90;;;;;;5013687;28;20040;-76
2023/12/12 00:56:29;;;;;;;18.52;5.00;;;10.20;99.90;;;;;;5015388;28;20034;-77
2023/12/12 00:58:55;;;;;;;17.23;5.13;;;10.10;99.90;;;;;;5016638;28;20320;-76
2023/12/12 01:01:20;;;;;;;16.50;4.97;;;10.00;99.90;;;;;;5016606;28;20073;-75
2023/12/12 01:03:46;;;;;;;14.95;5.22;;;9.90;99.90;;;;;;5016312;28;20108;-76
2023/12/12 01:06:23;;;;;;;16.83;4.72;;;9.80;99.90;;;;;;5013016;28;20054;-76
2023/12/12 01:08:48;;;;;;;21.30;5.28;;;9.70;99.90;;;;;;5014607;28;20088;-76
2023/12/12 01:11:16;;;;;;;19.23;5.57;;;9.60;99.90;;;;;;5014185;28;20405;-77
2023/12/12 01:13:42;;;;;;;19.08;4.45;;;9.50;99.90;;;;;;5012970;28;20026;-76
2023/12/12 01:16:07;;;;;;;18.30;5.57;;;9.40;99.90;;;;;;5014206;28;20029;-76
2023/12/12 01:18:34;;;;;;;18.15;5.38;;;9.30;99.90;;;;;;5014057;28;20466;-76
2023/12/12 01:21:07;;;;;;;17.67;5.13;;;9.30;99.90;;;;;;5014248;28;20495;-77
2023/12/12 01:23:55;;;;;;;21.17;5.85;;;9.20;99.90;;;;;;5012464;28;20032;-76
2023/12/12 01:26:22;;;;;;;23.20;6.03;;;9.10;99.90;;;;;;5012668;28;20101;-77
2023/12/12 01:28:49;;;;;;;20.63;5.35;;;9.00;99.90;;;;;;4995156;28;20417;-77
2023/12/12 01:31:15;;;;;;;21.92;5.88;;;9.00;99.90;;;;;;5014846;28;20029;-77
2023/12/12 01:33:42;;;;;;;16.95;4.82;;;8.90;99.90;;;;;;5013686;28;20495;-76
2023/12/12 01:36:11;;;;;;;18.45;5.18;;;8.90;99.90;;;;;;5012567;28;20034;-77
2023/12/12 01:38:37;;;;;;;21.15;5.40;;;8.80;99.90;;;;;;5012123;28;20037;-77
2023/12/12 01:41:04;;;;;;;21.45;5.00;;;8.70;99.90;;;;;;5012819;28;20034;-77
2023/12/12 01:43:43;;;;;;;18.60;4.85;;;8.70;99.90;;;;;;5011881;28;20033;-77
2023/12/12 01:46:19;;;;;;;19.40;4.72;;;8.70;99.90;;;;;;5014280;28;20029;-78
2023/12/12 01:48:45;;;;;;;17.38;4.40;;;8.60;99.90;;;;;;5025613;28;20029;-76
2023/12/12 01:51:11;;;;;;;20.75;5.18;;;8.60;99.90;;;;;;5035345;28;20029;-76
2023/12/12 01:53:46;;;;;;;20.58;4.57;;;8.50;99.90;;;;;;5017499;28;20025;-76
2023/12/12 01:56:14;;;;;;;29.33;5.15;;;8.50;99.90;;;;;;5018018;28;20116;-76
2023/12/12 01:58:44;;;;;;;17.00;4.88;;;8.50;99.90;;;;;;5022565;28;20030;-76
2023/12/12 02:01:10;;;;;;;25.25;5.50;;;8.50;99.90;;;;;;5029479;28;20037;-76
2023/12/12 02:03:36;;;;;;;19.85;6.32;;;8.40;99.90;;;;;;5035019;28;20109;-76
2023/12/12 02:06:03;;;;;;;27.30;8.00;;;8.40;99.90;;;;;;5030801;28;20034;-76
2023/12/12 02:08:29;;;;;;;26.00;8.48;;;8.40;99.90;;;;;;5024979;28;20512;-76
2023/12/12 02:10:54;;;;;;;26.10;10.75;;;8.40;99.90;;;;;;5012909;28;20041;-76
2023/12/12 02:13:20;;;;;;;33.05;13.27;;;8.40;99.90;;;;;;5014231;28;20042;-76
2023/12/12 02:15:47;;;;;;;25.80;7.68;;;8.30;99.90;;;;;;5015658;28;20065;-76
2023/12/12 02:18:14;;;;;;;31.55;6.38;;;8.30;99.90;;;;;;5006155;28;20051;-76
2023/12/12 02:20:43;;;;;;;23.15;5.22;;;8.30;99.90;;;;;;4995476;28;20030;-76
2023/12/12 02:23:09;;;;;;;22.55;5.80;;;8.20;99.90;;;;;;5010248;28;20030;-77
2023/12/12 02:25:36;;;;;;;21.95;7.00;;;8.20;99.90;;;;;;5012301;28;20478;-76
2023/12/12 02:28:03;;;;;;;24.55;6.45;;;8.20;99.90;;;;;;5010980;28;20025;-76
2023/12/12 02:30:30;;;;;;;41.97;20.77;;;8.20;99.90;;;;;;5015804;28;20489;-76
2023/12/12 02:32:58;;;;;;;22.23;5.63;;;8.20;99.90;;;;;;5015232;28;20030;-76
2023/12/12 02:35:23;;;;;;;23.30;5.72;;;8.20;99.90;;;;;;5013887;28;20108;-76
2023/12/12 02:37:49;;;;;;;25.33;5.90;;;8.10;99.90;;;;;;5012243;28;20108;-76
2023/12/12 02:40:15;;;;;;;20.83;6.10;;;8.00;99.90;;;;;;5013579;28;20076;-76
2023/12/12 02:42:44;;;;;;;27.27;8.15;;;8.00;99.90;;;;;;5014220;28;20038;-76
2023/12/12 02:45:11;;;;;;;19.52;5.38;;;7.90;99.90;;;;;;5012766;28;20022;-76
2023/12/12 02:47:37;;;;;;;22.65;5.30;;;7.90;99.90;;;;;;5013176;28;20103;-76
2023/12/12 02:50:02;;;;;;;25.45;5.28;;;7.80;99.90;;;;;;5013364;28;20034;-76
2023/12/12 02:52:28;;;;;;;22.40;5.90;;;7.80;99.90;;;;;;5014381;28;20108;-76
2023/12/12 02:54:53;;;;;;;24.80;5.10;;;7.80;99.90;;;;;;5012484;28;20084;-76
2023/12/12 02:57:19;;;;;;;21.17;5.47;;;7.80;99.90;;;;;;5014302;28;20076;-76
2023/12/12 02:59:44;;;;;;;21.90;5.75;;;7.80;99.90;;;;;;5011567;28;20062;-76
2023/12/12 03:02:10;;;;;;;23.85;5.45;;;7.90;99.90;;;;;;5012498;28;20034;-76
2023/12/12 03:04:35;;;;;;;17.13;4.80;;;7.90;99.90;;;;;;4996591;28;20022;-76
2023/12/12 03:07:01;;;;;;;20.77;4.85;;;7.90;99.90;;;;;;5013956;28;20034;-76
2023/12/12 03:09:26;;;;;;;20.27;5.65;;;8.00;99.90;;;;;;5013621;28;20504;-76
2023/12/12 03:11:53;;;;;;;22.23;5.50;;;8.00;99.90;;;;;;5012753;28;20077;-76
2023/12/12 03:14:26;;;;;;;19.25;5.85;;;8.00;99.90;;;;;;5013967;28;20040;-76
2023/12/12 03:16:51;;;;;;;21.48;6.38;;;8.10;99.90;;;;;;5013940;28;20030;-76
2023/12/12 03:19:17;;;;;;;22.77;6.63;;;8.10;99.90;;;;;;5012619;28;20120;-76
2023/12/12 03:21:42;;;;;;;20.65;6.80;;;8.10;99.90;;;;;;5013144;28;20598;-76
2023/12/12 03:24:08;;;;;;;20.35;7.05;;;8.00;99.90;;;;;;5012453;28;20061;-75
2023/12/12 03:26:33;;;;;;;22.73;7.25;;;8.10;99.90;;;;;;5012132;28;20393;-76
2023/12/12 03:28:59;;;;;;;23.30;8.23;;;8.10;99.90;;;;;;4993408;28;21961;-76
2023/12/12 03:31:24;;;;;;;23.92;8.48;;;8.10;99.90;;;;;;5014023;28;20105;-76
2023/12/12 03:33:50;;;;;;;22.80;9.50;;;8.10;99.90;;;;;;5012559;28;20038;-76
2023/12/12 03:36:15;;;;;;;24.60;10.35;;;8.10;99.90;;;;;;5013570;28;20489;-76
2023/12/12 03:38:41;;;;;;;22.65;9.80;;;8.10;99.90;;;;;;5013329;28;20041;-75
2023/12/12 03:41:07;;;;;;;20.13;10.93;;;8.10;99.90;;;;;;5013578;28;20045;-76
2023/12/12 03:43:32;;;;;;;20.50;11.13;;;8.10;99.90;;;;;;5013551;28;20045;-75
2023/12/12 03:45:58;;;;;;;25.25;11.85;;;8.10;99.90;;;;;;5012457;28;20030;-75
2023/12/12 03:48:23;;;;;;;18.63;10.73;;;8.00;99.90;;;;;;5011119;28;20026;-76
2023/12/12 03:50:49;;;;;;;21.23;12.27;;;8.00;99.90;;;;;;5013322;28;20030;-75
2023/12/12 03:53:15;;;;;;;21.42;11.55;;;8.00;99.90;;;;;;5012908;28;20028;-78
2023/12/12 03:55:41;;;;;;;19.30;11.80;;;8.00;99.90;;;;;;5011729;28;20026;-75
2023/12/12 03:58:06;;;;;;;22.60;12.73;;;8.00;99.90;;;;;;5011535;28;20204;-76
2023/12/12 04:00:32;;;;;;;24.60;12.38;;;7.90;99.90;;;;;;5009028;28;20065;-75
2023/12/12 04:02:57;;;;;;;23.30;13.18;;;7.90;99.90;;;;;;5010521;28;20034;-78
2023/12/12 04:05:23;;;;;;;24.60;13.25;;;7.90;99.90;;;;;;5010431;28;20030;-75
2023/12/12 04:07:48;;;;;;;25.88;12.80;;;7.90;99.90;;;;;;5012386;28;20026;-76
2023/12/12 04:10:14;;;;;;;27.40;13.43;;;7.90;99.90;;;;;;5011522;28;20034;-75
2023/12/12 04:12:39;;;;;;;22.60;13.02;;;7.90;99.90;;;;;;5012372;28;20429;-75
2023/12/12 04:15:06;;;;;;;23.58;13.00;;;7.90;99.90;;;;;;5012306;28;20034;-75
2023/12/12 04:17:35;;;;;;;25.08;12.30;;;7.90;99.90;;;;;;5012882;28;20074;-76
2023/12/12 04:20:01;;;;;;;28.05;12.75;;;7.90;99.90;;;;;;4944002;28;20022;-76
2023/12/12 04:22:26;;;;;;;25.73;12.60;;;7.90;99.90;;;;;;4991048;28;20034;-76
2023/12/12 04:24:52;;;;;;;24.10;11.90;;;8.00;99.90;;;;;;4992166;28;20030;-75
2023/12/12 04:27:17;;;;;;;26.08;12.15;;;8.00;99.90;;;;;;4990135;28;20053;-75
2023/12/12 04:29:43;;;;;;;29.13;13.00;;;8.00;99.90;;;;;;4992937;28;20493;-75
2023/12/12 04:32:08;;;;;;;24.13;11.90;;;8.00;99.90;;;;;;4990292;28;20065;-75
2023/12/12 04:34:34;;;;;;;23.90;11.88;;;8.00;99.90;;;;;;4990369;28;20026;-76
2023/12/12 04:37:01;;;;;;;28.30;12.80;;;8.00;99.90;;;;;;4991701;28;20058;-75
2023/12/12 04:39:27;;;;;;;26.63;12.13;;;8.10;99.90;;;;;;4975307;28;20423;-75
2023/12/12 04:41:52;;;;;;;31.63;15.07;;;8.10;99.90;;;;;;4992566;28;20103;-77
2023/12/12 04:44:18;;;;;;;28.92;12.43;;;8.10;99.90;;;;;;4992439;28;20031;-77
2023/12/12 04:46:44;;;;;;;27.95;12.77;;;8.10;99.90;;;;;;4992092;28;20414;-77
2023/12/12 04:49:09;;;;;;;31.05;12.65;;;8.10;99.90;;;;;;4992650;28;20070;-76
2023/12/12 04:51:35;;;;;;;89.30;18.13;;;8.10;99.90;;;;;;4991431;28;20022;-77
2023/12/12 04:54:01;;;;;;;30.33;13.32;;;8.10;99.90;;;;;;4991168;28;20421;-76
2023/12/12 04:56:26;;;;;;;25.00;13.45;;;8.20;99.90;;;;;;4991189;28;20022;-77
2023/12/12 04:58:52;;;;;;;32.75;14.75;;;8.20;99.90;;;;;;4984172;28;20022;-76
2023/12/12 05:01:18;;;;;;;27.80;14.27;;;8.20;99.90;;;;;;4988684;28;20128;-76
2023/12/12 05:03:44;;;;;;;27.42;14.00;;;8.20;99.90;;;;;;4992998;28;20106;-76
2023/12/12 05:06:10;;;;;;;32.13;15.25;;;8.10;99.90;;;;;;4992602;28;20027;-76
2023/12/12 05:08:36;;;;;;;34.22;16.35;;;8.10;99.90;;;;;;4992933;28;20026;-76
2023/12/12 05:11:02;;;;;;;30.13;15.80;;;8.10;99.90;;;;;;4991874;28;20046;-76
2023/12/12 05:13:27;;;;;;;33.00;15.93;;;8.10;99.90;;;;;;4991559;28;20045;-76
2023/12/12 05:15:53;;;;;;;32.83;15.98;;;8.20;99.90;;;;;;4992793;28;20030;-76
2023/12/12 05:18:19;;;;;;;30.92;16.13;;;8.30;99.90;;;;;;4990671;28;20042;-76
2023/12/12 05:20:45;;;;;;;35.20;17.73;;;8.30;99.90;;;;;;4984149;28;20030;-76
2023/12/12 05:23:11;;;;;;;34.55;19.05;;;8.30;99.90;;;;;;4989983;28;20038;-77
2023/12/12 05:25:37;;;;;;;38.72;17.85;;;8.30;99.90;;;;;;4991969;28;20462;-77
2023/12/12 05:28:02;;;;;;;105.50;23.83;;;8.30;99.90;;;;;;4989295;28;20086;-76
2023/12/12 05:30:28;;;;;;;34.05;17.95;;;8.30;99.90;;;;;;4988915;28;20029;-77
2023/12/12 05:32:53;;;;;;;33.78;17.58;;;8.30;99.90;;;;;;4990589;28;20053;-76
2023/12/12 05:35:19;;;;;;;34.35;18.98;;;8.30;99.90;;;;;;4971692;28;20045;-77
2023/12/12 05:37:44;;;;;;;82.50;23.08;;;8.30;99.90;;;;;;4988707;28;20019;-77
2023/12/12 05:40:14;;;;;;;31.20;19.45;;;8.20;99.90;;;;;;4992098;28;20100;-77
2023/12/12 05:42:43;;;;;;;38.30;21.55;;;8.20;99.90;;;;;;4992574;28;20081;-77
2023/12/12 05:45:09;;;;;;;38.47;22.90;;;8.10;99.90;;;;;;4992669;28;20773;-77
2023/12/12 05:47:35;;;;;;;39.65;23.65;;;8.00;99.90;;;;;;4988426;28;20057;-77
2023/12/12 05:50:00;;;;;;;51.97;25.40;;;8.00;99.90;;;;;;4987135;28;20062;-77
2023/12/12 05:52:26;;;;;;;41.45;25.30;;;7.90;99.90;;;;;;4994641;28;20030;-77
2023/12/12 05:54:52;;;;;;;48.75;27.27;;;7.80;99.90;;;;;;4994058;28;20382;-77
2023/12/12 05:57:18;;;;;;;107.25;58.45;;;7.70;99.90;;;;;;4996061;28;20395;-77
2023/12/12 05:59:43;;;;;;;55.20;29.27;;;7.60;99.90;;;;;;4995459;28;20027;-77
2023/12/12 06:02:09;;;;;;;47.33;30.02;;;7.60;99.90;;;;;;4994483;28;20057;-77
2023/12/12 06:04:35;;;;;;;48.55;29.13;;;7.50;99.90;;;;;;4993881;28;20034;-77
2023/12/12 06:07:04;;;;;;;56.08;30.23;;;7.40;99.90;;;;;;4996228;28;20027;-77
2023/12/12 06:09:30;;;;;;;111.22;35.20;;;7.40;99.90;;;;;;4995764;28;20034;-77
2023/12/12 06:11:55;;;;;;;50.38;30.25;;;7.30;99.90;;;;;;4995095;28;20394;-76
2023/12/12 06:14:21;;;;;;;59.83;31.42;;;7.30;99.90;;;;;;4978289;28;20031;-79
2023/12/12 06:16:46;;;;;;;81.50;35.88;;;7.20;99.90;;;;;;4995924;28;20066;-76
2023/12/12 06:19:12;;;;;;;74.80;35.70;;;7.20;99.90;;;;;;4994523;28;20074;-76
2023/12/12 06:21:37;;;;;;;71.55;34.75;;;7.20;99.90;;;;;;4994221;28;20488;-78
2023/12/12 06:24:05;;;;;;;64.63;34.58;;;7.10;99.90;;;;;;4995042;28;20137;-77
2023/12/12 06:26:31;;;;;;;73.88;36.67;;;7.10;99.90;;;;;;4995135;28;20023;-77
2023/12/12 06:28:57;;;;;;;83.63;39.50;;;7.10;99.90;;;;;;4993854;28;20042;-78
2023/12/12 06:31:23;;;;;;;67.40;37.05;;;7.10;99.90;;;;;;4995163;28;20026;-78
2023/12/12 06:33:49;;;;;;;86.95;39.72;;;7.10;99.90;;;;;;4993813;28;20542;-78
2023/12/12 06:36:15;;;;;;;78.20;40.63;;;7.20;99.90;;;;;;4993943;28;20034;-78
2023/12/12 06:38:42;;;;;;;205.38;53.40;;;7.20;99.90;;;;;;4995338;28;20513;-75
2023/12/12 06:41:09;;;;;;;62.58;39.53;;;7.30;99.90;;;;;;4994721;28;20389;-75
2023/12/12 06:43:35;;;;;;;86.38;40.63;;;7.30;99.90;;;;;;4994926;28;20101;-77
2023/12/12 06:46:00;;;;;;;74.72;41.60;;;7.40;99.90;;;;;;4994864;28;20454;-77
2023/12/12 06:48:26;;;;;;;78.22;40.42;;;7.50;99.90;;;;;;4992405;28;20485;-76
2023/12/12 06:50:52;;;;;;;66.95;38.53;;;7.50;99.90;;;;;;4986680;28;20081;-76
2023/12/12 06:53:18;;;;;;;69.32;38.28;;;7.60;99.90;;;;;;4995058;28;20066;-77
2023/12/12 06:55:44;;;;;;;62.42;40.17;;;7.60;99.90;;;;;;4993163;28;20034;-77
2023/12/12 06:58:11;;;;;;;73.18;39.35;;;7.70;99.90;;;;;;4994931;28;20088;-76
2023/12/12 07:00:39;;;;;;;59.30;37.97;;;7.70;99.90;;;;;;4991443;28;20100;-77
2023/12/12 07:03:05;;;;;;;73.22;38.85;;;7.70;99.90;;;;;;4993130;28;20049;-76
2023/12/12 07:05:31;;;;;;;66.45;41.97;;;7.70;99.90;;;;;;4993390;28;20022;-76
2023/12/12 07:07:56;;;;;;;75.70;40.85;;;7.80;99.90;;;;;;4992721;28;20085;-76
2023/12/12 07:10:22;;;;;;;74.55;41.40;;;7.80;99.90;;;;;;4994502;28;20027;-77
2023/12/12 07:12:47;;;;;;;78.50;41.10;;;7.80;99.90;;;;;;4993808;28;20045;-77
2023/12/12 07:15:13;;;;;;;66.22;40.85;;;7.80;99.90;;;;;;4992467;28;20031;-77
2023/12/12 07:17:39;;;;;;;94.75;40.97;;;7.80;99.90;;;;;;4993903;28;20046;-77
2023/12/12 07:20:05;;;;;;;76.60;41.63;;;7.80;99.90;;;;;;4976703;28;20382;-77
2023/12/12 07:22:30;;;;;;;76.53;42.67;;;7.80;99.90;;;;;;4993199;28;20034;-77
2023/12/12 07:24:56;;;;;;;74.82;44.28;;;7.80;99.90;;;;;;4993715;28;20117;-77
2023/12/12 07:27:22;;;;;;;124.18;53.00;;;7.80;99.90;;;;;;4990774;28;20070;-77
2023/12/12 07:29:47;;;;;;;83.45;47.33;;;7.90;99.90;;;;;;4989263;28;20088;-76
2023/12/12 07:32:13;;;;;;;83.65;43.97;;;7.90;99.90;;;;;;4994098;28;20101;-77
2023/12/12 07:34:38;;;;;;;77.07;43.22;;;8.00;99.90;;;;;;4994488;28;20074;-77
2023/12/12 07:37:05;;;;;;;69.45;41.35;;;8.00;99.90;;;;;;4976540;28;20386;-77
2023/12/12 07:39:31;;;;;;;77.15;41.53;;;8.10;99.90;;;;;;4993140;28;20394;-76
2023/12/12 07:41:57;;;;;;;72.65;42.67;;;8.10;99.90;;;;;;4993995;28;20038;-76
2023/12/12 07:44:23;;;;;;;69.65;40.08;;;8.10;99.90;;;;;;4994073;28;20026;-76
2023/12/12 07:46:49;;;;;;;244.05;61.42;;;8.20;99.90;;;;;;4991768;28;20040;-76
2023/12/12 07:49:15;;;;;;;105.43;45.03;;;8.20;99.90;;;;;;4993831;28;20374;-77
2023/12/12 07:51:40;;;;;;;70.78;39.25;;;8.20;99.90;;;;;;4991409;28;20031;-76
2023/12/12 07:54:06;;;;;;;139.07;47.08;;;8.20;99.90;;;;;;4992696;28;20034;-76
2023/12/12 07:56:32;;;;;;;62.60;37.83;;;8.20;99.90;;;;;;4994281;28;20034;-76
2023/12/12 07:58:58;;;;;;;75.25;38.72;;;8.20;99.90;;;;;;4992129;28;20042;-77
2023/12/12 08:01:24;;;;;;;62.97;35.53;;;8.30;99.90;;;;;;4974014;28;20433;-77
2023/12/12 08:03:50;;;;;;;71.88;35.53;;;8.30;99.90;;;;;;4990301;28;20026;-77
2023/12/12 08:06:16;;;;;;;82.30;38.63;;;8.30;99.90;;;;;;4992582;28;20046;-77
2023/12/12 08:08:42;;;;;;;79.10;36.58;;;8.30;99.90;;;;;;4974043;28;20097;-79
2023/12/12 08:11:14;;;;;;;71.40;36.83;;;8.30;99.90;;;;;;4966249;28;20089;-76
2023/12/12 08:13:40;;;;;;;69.40;35.08;;;8.30;99.90;;;;;;4991383;28;20126;-76
2023/12/12 08:16:07;;;;;;;86.75;39.50;;;8.40;99.90;;;;;;4993438;28;20042;-77
2023/12/12 08:18:32;;;;;;;88.97;38.75;;;8.40;99.90;;;;;;4992507;28;20454;-77
2023/12/12 08:20:58;;;;;;;78.28;36.70;;;8.40;99.90;;;;;;4991290;28;20482;-77
2023/12/12 08:23:24;;;;;;;65.18;35.42;;;8.40;99.90;;;;;;4991386;28;20134;-77
2023/12/12 08:25:50;;;;;;;77.40;37.20;;;8.40;99.90;;;;;;4990261;28;20097;-77
2023/12/12 08:28:15;;;;;;;83.95;37.70;;;8.40;99.90;;;;;;4991853;28;20100;-77
2023/12/12 08:30:41;;;;;;;80.38;39.60;;;8.50;99.90;;;;;;4987997;28;20038;-77
2023/12/12 08:33:06;;;;;;;68.63;35.05;;;8.50;99.90;;;;;;4989679;28;20093;-77
2023/12/12 08:35:32;;;;;;;75.28;35.45;;;8.60;99.90;;;;;;4993068;28;20038;-77
2023/12/12 08:37:57;;;;;;;75.35;36.55;;;8.60;99.90;;;;;;4993139;28;20044;-77
2023/12/12 08:40:23;;;;;;;75.75;36.75;;;8.70;99.90;;;;;;4990276;28;20098;-76
2023/12/12 08:42:49;;;;;;;98.93;57.58;;;8.70;99.90;;;;;;4990566;28;20046;-77
2023/12/12 08:45:14;;;;;;;65.82;37.75;;;8.70;99.90;;;;;;4993106;28;20031;-77
2023/12/12 08:47:40;;;;;;;64.63;35.80;;;8.80;99.90;;;;;;4988658;28;20053;-76
2023/12/12 08:50:06;;;;;;;59.35;33.53;;;8.80;99.90;;;;;;4990653;28;20536;-77
2023/12/12 08:52:32;;;;;;;52.38;32.42;;;8.90;99.90;;;;;;4991180;28;20030;-77
2023/12/12 08:54:58;;;;;;;51.65;31.58;;;9.00;99.90;;;;;;4992713;28;20556;-77
2023/12/12 08:57:23;;;;;;;52.75;29.50;;;9.00;99.90;;;;;;4991653;28;20026;-77
2023/12/12 08:59:49;;;;;;;45.60;28.48;;;9.00;99.90;;;;;;4992710;28;20034;-76
2023/12/12 09:02:16;;;;;;;47.47;28.83;;;9.10;99.90;;;;;;4991576;28;20038;-76
2023/12/12 09:04:41;;;;;;;48.65;26.98;;;9.20;99.90;;;;;;4991465;28;20437;-77
2023/12/12 09:07:07;;;;;;;49.22;27.65;;;9.20;99.90;;;;;;4988156;28;20113;-76
2023/12/12 09:09:32;;;;;;;55.45;29.52;;;9.30;99.90;;;;;;4992951;28;20034;-76
2023/12/12 09:12:00;;;;;;;47.80;27.00;;;9.30;99.90;;;;;;4990733;28;20125;-76
2023/12/12 09:14:27;;;;;;;47.97;25.30;;;9.40;99.90;;;;;;4993030;28;20031;-77
2023/12/12 09:16:53;;;;;;;42.13;23.63;;;9.40;99.90;;;;;;4995185;28;20030;-77
2023/12/12 09:19:19;;;;;;;48.35;24.00;;;9.50;99.90;;;;;;4995364;28;20061;-76
2023/12/12 09:21:44;;;;;;;44.65;22.98;;;9.50;99.90;;;;;;4994390;28;20400;-76
2023/12/12 09:24:10;;;;;;;46.45;22.90;;;9.60;99.90;;;;;;4992840;28;20027;-77
2023/12/12 09:26:35;;;;;;;48.08;22.67;;;9.60;99.90;;;;;;4995188;28;20026;-76
2023/12/12 09:29:01;;;;;;;43.33;22.08;;;9.70;99.90;;;;;;4996493;28;20041;-77
2023/12/12 09:31:28;;;;;;;54.15;22.80;;;9.70;99.90;;;;;;4994137;28;20545;-76
2023/12/12 09:33:55;;;;;;;44.90;20.45;;;9.80;99.90;;;;;;4996094;28;20117;-76
2023/12/12 09:36:21;;;;;;;42.38;22.33;;;9.80;99.90;;;;;;4996103;28;20037;-76
2023/12/12 09:38:47;;;;;;;43.55;22.05;;;9.80;99.90;;;;;;4995456;28;20038;-76
2023/12/12 09:41:20;;;;;;;49.08;22.33;;;9.90;99.90;;;;;;4995547;28;20045;-76
2023/12/12 09:43:48;;;;;;;45.95;22.85;;;9.90;99.90;;;;;;4995316;28;20034;-76
2023/12/12 09:46:15;;;;;;;45.15;21.90;;;9.90;99.90;;;;;;4996311;28;20455;-76
2023/12/12 09:48:42;;;;;;;46.40;22.45;;;9.90;99.90;;;;;;4995975;28;20036;-75
2023/12/12 09:51:08;;;;;;;41.33;21.67;;;9.90;99.90;;;;;;4993771;28;20169;-76
2023/12/12 09:53:35;;;;;;;47.03;22.42;;;10.00;99.90;;;;;;4994975;28;20030;-76
2023/12/12 09:56:06;;;;;;;52.88;27.23;;;10.00;99.90;;;;;;4994763;28;20030;-76
2023/12/12 09:58:32;;;;;;;52.42;26.92;;;10.00;99.90;;;;;;4995601;28;20026;-76
2023/12/12 10:01:02;;;;;;;49.03;23.63;;;10.00;99.90;;;;;;4994148;28;20041;-76
2023/12/12 10:03:28;;;;;;;44.67;21.75;;;10.00;99.90;;;;;;4992831;28;20534;-76
2023/12/12 10:05:56;;;;;;;44.97;22.90;;;10.10;99.90;;;;;;4994887;28;20061;-77
2023/12/12 10:08:23;;;;;;;44.53;21.98;;;10.10;99.90;;;;;;4994022;28;20061;-76
2023/12/12 10:10:52;;;;;;;85.15;48.25;;;10.10;99.90;;;;;;4993623;28;20065;-78
2023/12/12 10:13:18;;;;;;;49.42;24.85;;;10.20;99.90;;;;;;4995455;28;20042;-77
2023/12/12 10:15:44;;;;;;;42.63;20.92;;;10.20;99.90;;;;;;4993724;28;20048;-76
2023/12/12 10:18:10;;;;;;;54.85;21.90;;;10.30;99.90;;;;;;4995654;28;20529;-76
2023/12/12 10:20:35;;;;;;;41.28;19.92;;;10.30;99.90;;;;;;4995352;28;20027;-76
2023/12/12 10:23:03;;;;;;;39.15;18.85;;;10.40;99.90;;;;;;4995133;28;20548;-76
2023/12/12 10:25:29;;;;;;;38.65;19.65;;;10.40;99.90;;;;;;4989721;28;20042;-76
2023/12/12 10:27:56;;;;;;;39.28;17.67;;;10.50;99.90;;;;;;4995310;28;20030;-75
2023/12/12 10:30:22;;;;;;;39.85;18.77;;;10.60;99.90;;;;;;4995082;28;20117;-76
2023/12/12 10:32:51;;;;;;;42.63;20.33;;;10.70;99.90;;;;;;4992927;28;20112;-76
2023/12/12 10:35:20;;;;;;;37.40;18.15;;;10.70;99.90;;;;;;4993675;28;20035;-77
2023/12/12 10:37:45;;;;;;;41.60;17.67;;;10.70;99.90;;;;;;4993485;28;20406;-76
2023/12/12 10:40:15;;;;;;;37.72;15.75;;;10.80;99.90;;;;;;4992562;28;20125;-77
2023/12/12 10:42:41;;;;;;;38.38;15.45;;;10.90;99.90;;;;;;4994814;28;20105;-77
2023/12/12 10:45:13;;;;;;;31.92;15.98;;;10.90;99.90;;;;;;4993233;28;20037;-77
2023/12/12 10:47:45;;;;;;;38.10;15.63;;;11.00;99.90;;;;;;4994593;28;20501;-77
2023/12/12 10:50:15;;;;;;;35.63;15.57;;;11.00;99.90;;;;;;4993165;28;20081;-76
2023/12/12 10:52:43;;;;;;;45.72;20.45;;;11.00;99.90;;;;;;4994711;28;20462;-77
2023/12/12 10:55:14;;;;;;;35.28;16.05;;;11.00;99.90;;;;;;4992041;28;20572;-77
2023/12/12 10:57:42;;;;;;;37.78;17.27;;;11.00;99.90;;;;;;4994521;28;20082;-76
2023/12/12 11:00:14;;;;;;;39.08;15.45;;;11.10;99.90;;;;;;4993191;28;20034;-77
2023/12/12 11:02:44;;;;;;;31.38;14.30;;;11.10;99.90;;;;;;4994027;28;20465;-76
2023/12/12 11:05:11;;;;;;;34.00;14.82;;;11.10;99.90;;;;;;4975713;28;20034;-77
2023/12/12 11:07:38;;;;;;;37.55;15.98;;;11.10;99.90;;;;;;4993135;28;20523;-76
2023/12/12 11:10:06;;;;;;;37.25;15.35;;;11.00;99.90;;;;;;4993426;28;20486;-76
2023/12/12 11:12:34;;;;;;;35.45;15.32;;;11.10;99.90;;;;;;4992930;28;20035;-77
2023/12/12 11:15:02;;;;;;;35.38;15.45;;;11.10;99.90;;;;;;4993933;28;20026;-77
2023/12/12 11:17:28;;;;;;;32.80;14.80;;;11.10;99.90;;;;;;4988708;28;20049;-76
2023/12/12 11:19:53;;;;;;;37.13;16.15;;;11.10;99.90;;;;;;4986010;28;20129;-76
2023/12/12 11:22:38;;;;;;;31.60;14.07;;;11.20;99.90;;;;;;4990324;28;20089;-77
2023/12/12 11:25:08;;;;;;;32.00;15.52;;;11.20;99.90;;;;;;4992957;28;20431;-77
2023/12/12 11:27:38;;;;;;;39.08;15.73;;;11.20;99.90;;;;;;4990881;28;20026;-77
2023/12/12 11:30:06;;;;;;;31.30;14.70;;;11.30;99.90;;;;;;4993029;28;20031;-76
2023/12/12 11:32:35;;;;;;;32.30;14.77;;;11.30;99.90;;;;;;4992238;28;20029;-77
2023/12/12 11:35:06;;;;;;;34.70;15.30;;;11.40;99.90;;;;;;4991401;28;20482;-76
2023/12/12 11:37:42;;;;;;;33.08;15.07;;;11.40;99.90;;;;;;4991499;28;20054;-76
2023/12/12 11:40:09;;;;;;;35.33;15.75;;;11.30;99.90;;;;;;4974099;28;20740;-76
2023/12/12 11:42:35;;;;;;;41.22;15.80;;;11.40;99.90;;;;;;4989902;28;20042;-77
2023/12/12 11:45:01;;;;;;;31.75;14.20;;;11.40;99.90;;;;;;4989758;28;20041;-76
2023/12/12 11:47:29;;;;;;;39.50;15.23;;;11.40;99.90;;;;;;4990156;28;20069;-76
2023/12/12 11:50:15;;;;;;;35.72;14.95;;;11.40;99.90;;;;;;4991179;28;20037;-75
2023/12/12 11:52:41;;;;;;;37.17;14.45;;;11.30;99.90;;;;;;4991566;28;20096;-75
2023/12/12 11:55:07;;;;;;;33.58;15.65;;;11.30;99.90;;;;;;4993319;28;20518;-76
2023/12/12 11:57:33;;;;;;;36.67;15.55;;;11.30;99.90;;;;;;4993240;28;20025;-78
2023/12/12 12:00:00;;;;;;;32.60;14.85;;;11.30;99.90;;;;;;4988621;28;20034;-76
2023/12/12 12:02:32;;;;;;;34.47;14.65;;;11.30;99.90;;;;;;4990687;28;20046;-76
2023/12/12 12:04:58;;;;;;;30.85;14.30;;;11.20;99.90;;;;;;4988176;28;20053;-76
2023/12/12 12:07:24;;;;;;;34.25;14.93;;;11.20;99.90;;;;;;4991747;28;20470;-77
2023/12/12 12:09:52;;;;;;;33.17;15.65;;;11.20;99.90;;;;;;4992284;28;20037;-77
2023/12/12 12:12:18;;;;;;;34.40;15.57;;;11.20;99.90;;;;;;4990302;28;20030;-77
2023/12/12 12:14:44;;;;;;;31.48;15.20;;;11.20;99.90;;;;;;4992410;28;20455;-77
2023/12/12 12:17:10;;;;;;;33.60;14.80;;;11.20;99.90;;;;;;4992489;28;21198;-80
2023/12/12 12:19:37;;;;;;;34.97;15.85;;;11.20;99.90;;;;;;4974659;28;20037;-77
2023/12/12 12:22:07;;;;;;;37.63;14.00;;;11.20;99.90;;;;;;4992426;28;20030;-77
2023/12/12 12:24:40;;;;;;;33.85;15.77;;;11.10;99.90;;;;;;4992761;28;20081;-77
2023/12/12 12:27:05;;;;;;;32.72;14.15;;;11.10;99.90;;;;;;4992148;28;20534;-77
2023/12/12 12:29:31;;;;;;;32.92;15.85;;;11.10;99.90;;;;;;4993209;28;20038;-77
2023/12/12 12:32:17;;;;;;;33.00;16.63;;;11.00;99.90;;;;;;4992324;28;20038;-76